Grand Canyon, Arizona
Current Conditions -  °F | °C
As of 9:54 PM on Friday 24 Oct 2014 (Local Time) from KGCN Reporting Station
Smoke Smoke  
Wind Chill: 38°   Ceiling: Unl
Heat Index: 38°   Visibility: 10mi
Dew Point: 22°   Wind: 0mph
Humidity: 53%   Direction: NA
Pressure: 30.36"   Gusts: NA
Location:  36.05°N, 112.14°W
Report Text: KGCN 250454Z 00000KT 10SM FU CLR 03/M06 A3036 RMK AO2 SLP221 T00331056
Loading
Personal Weather Stations






























Interactive Weather Map
Tropical Storm Tracking
New forecast layout! Learn more

10-Day Weather Forecast

Advertisements
Track Severe Weather on mobile